sensor_id;sensor_type;location;lat;lon;timestamp;P1;durP1;ratioP1;P2;durP2;ratioP2
8419;SDS011;4247;48.550;8.822;2022-12-10T00:01:59;35.73;;;17.30;;
8419;SDS011;4247;48.550;8.822;2022-12-10T00:04:25;41.23;;;17.40;;
8419;SDS011;4247;48.550;8.822;2022-12-10T00:06:53;37.73;;;16.63;;
8419;SDS011;4247;48.550;8.822;2022-12-10T00:09:20;37.10;;;17.63;;
8419;SDS011;4247;48.550;8.822;2022-12-10T00:11:47;38.37;;;16.77;;
8419;SDS011;4247;48.550;8.822;2022-12-10T00:14:14;35.33;;;18.17;;
8419;SDS011;4247;48.550;8.822;2022-12-10T00:16:41;35.97;;;18.23;;
8419;SDS011;4247;48.550;8.822;2022-12-10T00:19:08;34.20;;;17.03;;
8419;SDS011;4247;48.550;8.822;2022-12-10T00:21:35;37.10;;;16.83;;
8419;SDS011;4247;48.550;8.822;2022-12-10T00:24:04;34.57;;;17.37;;
8419;SDS011;4247;48.550;8.822;2022-12-10T00:26:32;35.57;;;16.40;;
8419;SDS011;4247;48.550;8.822;2022-12-10T00:29:02;30.50;;;16.30;;
8419;SDS011;4247;48.550;8.822;2022-12-10T00:31:31;30.07;;;15.83;;
8419;SDS011;4247;48.550;8.822;2022-12-10T00:34:00;37.83;;;18.60;;
8419;SDS011;4247;48.550;8.822;2022-12-10T00:36:29;37.07;;;17.27;;
8419;SDS011;4247;48.550;8.822;2022-12-10T00:38:57;38.07;;;16.90;;
8419;SDS011;4247;48.550;8.822;2022-12-10T00:41:25;38.23;;;18.33;;
8419;SDS011;4247;48.550;8.822;2022-12-10T00:43:52;37.63;;;17.63;;
8419;SDS011;4247;48.550;8.822;2022-12-10T00:46:19;34.53;;;18.60;;
8419;SDS011;4247;48.550;8.822;2022-12-10T00:48:47;39.20;;;18.17;;
8419;SDS011;4247;48.550;8.822;2022-12-10T00:51:14;37.00;;;18.60;;
8419;SDS011;4247;48.550;8.822;2022-12-10T00:53:42;41.40;;;18.87;;
8419;SDS011;4247;48.550;8.822;2022-12-10T00:56:11;34.93;;;15.83;;
8419;SDS011;4247;48.550;8.822;2022-12-10T00:58:40;40.30;;;18.53;;
8419;SDS011;4247;48.550;8.822;2022-12-10T01:01:10;35.30;;;18.20;;
8419;SDS011;4247;48.550;8.822;2022-12-10T01:03:38;37.73;;;18.40;;
8419;SDS011;4247;48.550;8.822;2022-12-10T01:06:10;41.40;;;19.13;;
8419;SDS011;4247;48.550;8.822;2022-12-10T01:08:39;42.13;;;16.97;;
8419;SDS011;4247;48.550;8.822;2022-12-10T01:11:07;39.10;;;18.10;;
8419;SDS011;4247;48.550;8.822;2022-12-10T01:13:34;39.37;;;19.00;;
8419;SDS011;4247;48.550;8.822;2022-12-10T01:16:03;34.67;;;16.00;;
8419;SDS011;4247;48.550;8.822;2022-12-10T01:18:32;37.50;;;18.70;;
8419;SDS011;4247;48.550;8.822;2022-12-10T01:21:02;34.73;;;17.60;;
8419;SDS011;4247;48.550;8.822;2022-12-10T01:23:30;38.07;;;18.20;;
8419;SDS011;4247;48.550;8.822;2022-12-10T01:25:59;42.73;;;17.20;;
8419;SDS011;4247;48.550;8.822;2022-12-10T01:28:28;42.53;;;19.73;;
8419;SDS011;4247;48.550;8.822;2022-12-10T01:30:59;37.13;;;17.87;;
8419;SDS011;4247;48.550;8.822;2022-12-10T01:33:28;36.10;;;16.23;;
8419;SDS011;4247;48.550;8.822;2022-12-10T01:35:55;38.10;;;18.07;;
8419;SDS011;4247;48.550;8.822;2022-12-10T01:38:22;34.90;;;17.10;;
8419;SDS011;4247;48.550;8.822;2022-12-10T01:40:49;37.87;;;19.13;;
8419;SDS011;4247;48.550;8.822;2022-12-10T01:43:16;33.30;;;17.23;;
8419;SDS011;4247;48.550;8.822;2022-12-10T01:45:42;33.37;;;16.47;;
8419;SDS011;4247;48.550;8.822;2022-12-10T01:48:09;32.20;;;17.43;;
8419;SDS011;4247;48.550;8.822;2022-12-10T01:50:38;42.70;;;19.50;;
8419;SDS011;4247;48.550;8.822;2022-12-10T01:53:05;35.60;;;18.87;;
8419;SDS011;4247;48.550;8.822;2022-12-10T01:55:39;37.97;;;17.47;;
8419;SDS011;4247;48.550;8.822;2022-12-10T01:58:09;34.80;;;17.30;;
8419;SDS011;4247;48.550;8.822;2022-12-10T02:00:38;35.93;;;16.23;;
8419;SDS011;4247;48.550;8.822;2022-12-10T02:03:13;38.90;;;17.63;;
8419;SDS011;4247;48.550;8.822;2022-12-10T02:05:46;38.93;;;17.43;;
8419;SDS011;4247;48.550;8.822;2022-12-10T02:08:19;40.23;;;17.90;;
8419;SDS011;4247;48.550;8.822;2022-12-10T02:10:55;36.80;;;19.03;;
8419;SDS011;4247;48.550;8.822;2022-12-10T02:13:29;33.53;;;17.83;;
8419;SDS011;4247;48.550;8.822;2022-12-10T02:16:00;40.17;;;17.43;;
8419;SDS011;4247;48.550;8.822;2022-12-10T02:18:32;33.27;;;17.37;;
8419;SDS011;4247;48.550;8.822;2022-12-10T02:21:05;44.93;;;17.93;;
8419;SDS011;4247;48.550;8.822;2022-12-10T02:23:37;35.80;;;16.77;;
8419;SDS011;4247;48.550;8.822;2022-12-10T02:26:09;39.63;;;18.53;;
8419;SDS011;4247;48.550;8.822;2022-12-10T02:28:39;36.97;;;18.43;;
8419;SDS011;4247;48.550;8.822;2022-12-10T02:31:14;36.33;;;17.10;;
8419;SDS011;4247;48.550;8.822;2022-12-10T02:33:44;33.40;;;17.47;;
8419;SDS011;4247;48.550;8.822;2022-12-10T02:36:14;33.80;;;16.83;;
8419;SDS011;4247;48.550;8.822;2022-12-10T02:38:44;36.57;;;18.17;;
8419;SDS011;4247;48.550;8.822;2022-12-10T02:41:14;36.63;;;16.27;;
8419;SDS011;4247;48.550;8.822;2022-12-10T02:43:45;31.47;;;17.10;;
8419;SDS011;4247;48.550;8.822;2022-12-10T02:46:16;36.27;;;17.53;;
8419;SDS011;4247;48.550;8.822;2022-12-10T02:48:43;36.57;;;17.90;;
8419;SDS011;4247;48.550;8.822;2022-12-10T02:51:12;33.63;;;15.67;;
8419;SDS011;4247;48.550;8.822;2022-12-10T02:53:41;37.23;;;17.23;;
8419;SDS011;4247;48.550;8.822;2022-12-10T02:56:13;31.00;;;15.90;;
8419;SDS011;4247;48.550;8.822;2022-12-10T02:58:48;33.73;;;15.60;;
8419;SDS011;4247;48.550;8.822;2022-12-10T03:01:25;30.63;;;15.40;;
8419;SDS011;4247;48.550;8.822;2022-12-10T03:03:59;39.77;;;17.40;;
8419;SDS011;4247;48.550;8.822;2022-12-10T03:06:32;30.87;;;17.03;;
8419;SDS011;4247;48.550;8.822;2022-12-10T03:09:04;35.07;;;17.17;;
8419;SDS011;4247;48.550;8.822;2022-12-10T03:11:34;37.00;;;16.57;;
8419;SDS011;4247;48.550;8.822;2022-12-10T03:14:02;30.53;;;16.33;;
8419;SDS011;4247;48.550;8.822;2022-12-10T03:16:37;34.37;;;16.90;;
8419;SDS011;4247;48.550;8.822;2022-12-10T03:19:09;33.17;;;16.67;;
8419;SDS011;4247;48.550;8.822;2022-12-10T03:21:38;35.07;;;17.13;;
8419;SDS011;4247;48.550;8.822;2022-12-10T03:24:07;30.60;;;16.93;;
8419;SDS011;4247;48.550;8.822;2022-12-10T03:26:35;33.57;;;15.87;;
8419;SDS011;4247;48.550;8.822;2022-12-10T03:29:05;41.63;;;18.70;;
8419;SDS011;4247;48.550;8.822;2022-12-10T03:31:35;31.57;;;17.57;;
8419;SDS011;4247;48.550;8.822;2022-12-10T03:34:04;30.47;;;17.00;;
8419;SDS011;4247;48.550;8.822;2022-12-10T03:36:32;32.17;;;16.50;;
8419;SDS011;4247;48.550;8.822;2022-12-10T03:39:00;32.63;;;16.97;;
8419;SDS011;4247;48.550;8.822;2022-12-10T03:41:27;27.90;;;15.43;;
8419;SDS011;4247;48.550;8.822;2022-12-10T03:43:55;34.20;;;18.67;;
8419;SDS011;4247;48.550;8.822;2022-12-10T03:46:24;30.93;;;16.23;;
8419;SDS011;4247;48.550;8.822;2022-12-10T03:48:53;28.77;;;15.83;;
8419;SDS011;4247;48.550;8.822;2022-12-10T03:51:21;27.70;;;14.83;;
8419;SDS011;4247;48.550;8.822;2022-12-10T03:53:48;32.50;;;17.73;;
8419;SDS011;4247;48.550;8.822;2022-12-10T03:56:15;35.50;;;17.13;;
8419;SDS011;4247;48.550;8.822;2022-12-10T03:58:42;31.87;;;16.30;;
8419;SDS011;4247;48.550;8.822;2022-12-10T04:01:08;35.07;;;17.80;;
8419;SDS011;4247;48.550;8.822;2022-12-10T04:03:36;34.63;;;16.50;;
8419;SDS011;4247;48.550;8.822;2022-12-10T04:06:05;36.97;;;17.33;;
8419;SDS011;4247;48.550;8.822;2022-12-10T04:08:36;30.30;;;16.63;;
8419;SDS011;4247;48.550;8.822;2022-12-10T04:11:03;29.80;;;15.33;;
8419;SDS011;4247;48.550;8.822;2022-12-10T04:13:31;41.80;;;17.87;;
8419;SDS011;4247;48.550;8.822;2022-12-10T04:16:16;29.87;;;15.87;;
8419;SDS011;4247;48.550;8.822;2022-12-10T04:18:55;37.43;;;18.33;;
8419;SDS011;4247;48.550;8.822;2022-12-10T04:21:25;30.33;;;16.37;;
8419;SDS011;4247;48.550;8.822;2022-12-10T04:24:10;39.97;;;18.57;;
8419;SDS011;4247;48.550;8.822;2022-12-10T04:26:55;39.03;;;16.73;;
8419;SDS011;4247;48.550;8.822;2022-12-10T04:29:23;37.10;;;18.27;;
8419;SDS011;4247;48.550;8.822;2022-12-10T04:31:52;38.70;;;18.03;;
8419;SDS011;4247;48.550;8.822;2022-12-10T04:34:19;40.97;;;19.30;;
8419;SDS011;4247;48.550;8.822;2022-12-10T04:36:48;37.47;;;17.77;;
8419;SDS011;4247;48.550;8.822;2022-12-10T04:39:15;35.80;;;18.57;;
8419;SDS011;4247;48.550;8.822;2022-12-10T04:41:43;30.00;;;15.47;;
8419;SDS011;4247;48.550;8.822;2022-12-10T04:44:11;34.47;;;18.23;;
8419;SDS011;4247;48.550;8.822;2022-12-10T04:46:38;33.33;;;17.57;;
8419;SDS011;4247;48.550;8.822;2022-12-10T04:49:05;31.77;;;16.77;;
8419;SDS011;4247;48.550;8.822;2022-12-10T04:51:32;39.23;;;18.00;;
8419;SDS011;4247;48.550;8.822;2022-12-10T04:54:01;34.07;;;17.23;;
8419;SDS011;4247;48.550;8.822;2022-12-10T04:56:27;41.83;;;17.97;;
8419;SDS011;4247;48.550;8.822;2022-12-10T04:58:55;35.37;;;17.70;;
8419;SDS011;4247;48.550;8.822;2022-12-10T05:01:22;33.97;;;16.70;;
8419;SDS011;4247;48.550;8.822;2022-12-10T05:03:49;34.53;;;18.27;;
8419;SDS011;4247;48.550;8.822;2022-12-10T05:06:17;34.90;;;16.33;;
8419;SDS011;4247;48.550;8.822;2022-12-10T05:08:45;36.23;;;17.83;;
8419;SDS011;4247;48.550;8.822;2022-12-10T05:11:14;32.20;;;15.43;;
8419;SDS011;4247;48.550;8.822;2022-12-10T05:13:42;35.23;;;16.60;;
8419;SDS011;4247;48.550;8.822;2022-12-10T05:16:10;32.20;;;16.67;;
8419;SDS011;4247;48.550;8.822;2022-12-10T05:18:38;30.53;;;15.60;;
8419;SDS011;4247;48.550;8.822;2022-12-10T05:21:06;32.70;;;16.43;;
8419;SDS011;4247;48.550;8.822;2022-12-10T05:23:35;29.83;;;15.30;;
8419;SDS011;4247;48.550;8.822;2022-12-10T05:26:02;33.17;;;17.13;;
8419;SDS011;4247;48.550;8.822;2022-12-10T05:28:32;27.37;;;14.27;;
8419;SDS011;4247;48.550;8.822;2022-12-10T05:31:01;34.67;;;15.80;;
8419;SDS011;4247;48.550;8.822;2022-12-10T05:33:29;29.07;;;15.63;;
8419;SDS011;4247;48.550;8.822;2022-12-10T05:35:57;32.60;;;16.43;;
8419;SDS011;4247;48.550;8.822;2022-12-10T05:38:25;37.73;;;17.00;;
8419;SDS011;4247;48.550;8.822;2022-12-10T05:40:53;38.73;;;17.10;;
8419;SDS011;4247;48.550;8.822;2022-12-10T05:43:20;39.47;;;16.37;;
8419;SDS011;4247;48.550;8.822;2022-12-10T05:45:48;30.27;;;15.67;;
8419;SDS011;4247;48.550;8.822;2022-12-10T05:48:15;30.03;;;14.97;;
8419;SDS011;4247;48.550;8.822;2022-12-10T05:50:42;28.93;;;15.50;;
8419;SDS011;4247;48.550;8.822;2022-12-10T05:53:09;30.20;;;16.50;;
8419;SDS011;4247;48.550;8.822;2022-12-10T05:55:38;28.63;;;14.97;;
8419;SDS011;4247;48.550;8.822;2022-12-10T05:58:05;35.43;;;16.97;;
8419;SDS011;4247;48.550;8.822;2022-12-10T06:00:32;32.90;;;16.57;;
8419;SDS011;4247;48.550;8.822;2022-12-10T06:03:00;32.90;;;17.13;;
8419;SDS011;4247;48.550;8.822;2022-12-10T06:05:27;28.23;;;15.17;;
8419;SDS011;4247;48.550;8.822;2022-12-10T06:07:54;32.30;;;16.53;;
8419;SDS011;4247;48.550;8.822;2022-12-10T06:10:20;39.47;;;18.37;;
8419;SDS011;4247;48.550;8.822;2022-12-10T06:12:47;32.80;;;15.70;;
8419;SDS011;4247;48.550;8.822;2022-12-10T06:15:14;31.30;;;15.73;;
8419;SDS011;4247;48.550;8.822;2022-12-10T06:17:41;36.70;;;15.73;;
8419;SDS011;4247;48.550;8.822;2022-12-10T06:20:10;26.00;;;15.37;;
8419;SDS011;4247;48.550;8.822;2022-12-10T06:22:37;26.87;;;14.73;;
8419;SDS011;4247;48.550;8.822;2022-12-10T06:25:04;27.83;;;15.37;;
8419;SDS011;4247;48.550;8.822;2022-12-10T06:27:31;31.97;;;15.90;;
8419;SDS011;4247;48.550;8.822;2022-12-10T06:29:58;24.70;;;14.57;;
8419;SDS011;4247;48.550;8.822;2022-12-10T06:32:25;31.33;;;14.77;;
8419;SDS011;4247;48.550;8.822;2022-12-10T06:34:52;32.07;;;15.67;;
8419;SDS011;4247;48.550;8.822;2022-12-10T06:37:20;25.87;;;13.00;;
8419;SDS011;4247;48.550;8.822;2022-12-10T06:39:49;24.40;;;13.60;;
8419;SDS011;4247;48.550;8.822;2022-12-10T06:42:16;23.47;;;13.40;;
8419;SDS011;4247;48.550;8.822;2022-12-10T06:44:43;23.63;;;14.03;;
8419;SDS011;4247;48.550;8.822;2022-12-10T06:47:10;29.33;;;14.90;;
8419;SDS011;4247;48.550;8.822;2022-12-10T06:49:37;22.43;;;12.77;;
8419;SDS011;4247;48.550;8.822;2022-12-10T06:52:03;21.10;;;12.57;;
8419;SDS011;4247;48.550;8.822;2022-12-10T06:54:32;22.87;;;13.33;;
8419;SDS011;4247;48.550;8.822;2022-12-10T06:56:59;26.97;;;15.60;;
8419;SDS011;4247;48.550;8.822;2022-12-10T06:59:27;24.87;;;13.37;;
8419;SDS011;4247;48.550;8.822;2022-12-10T07:01:54;31.13;;;14.93;;
8419;SDS011;4247;48.550;8.822;2022-12-10T07:04:21;24.80;;;13.60;;
8419;SDS011;4247;48.550;8.822;2022-12-10T07:06:48;30.27;;;15.77;;
8419;SDS011;4247;48.550;8.822;2022-12-10T07:09:14;28.50;;;16.20;;
8419;SDS011;4247;48.550;8.822;2022-12-10T07:11:42;28.03;;;15.60;;
8419;SDS011;4247;48.550;8.822;2022-12-10T07:14:10;33.57;;;16.77;;
8419;SDS011;4247;48.550;8.822;2022-12-10T07:16:39;29.07;;;15.20;;
8419;SDS011;4247;48.550;8.822;2022-12-10T07:19:08;27.63;;;15.23;;
8419;SDS011;4247;48.550;8.822;2022-12-10T07:21:36;31.93;;;17.80;;
8419;SDS011;4247;48.550;8.822;2022-12-10T07:24:05;27.60;;;15.10;;
8419;SDS011;4247;48.550;8.822;2022-12-10T07:26:34;26.57;;;15.47;;
8419;SDS011;4247;48.550;8.822;2022-12-10T07:29:05;28.73;;;15.07;;
8419;SDS011;4247;48.550;8.822;2022-12-10T07:31:35;26.37;;;15.33;;
8419;SDS011;4247;48.550;8.822;2022-12-10T07:34:01;32.70;;;15.07;;
8419;SDS011;4247;48.550;8.822;2022-12-10T07:36:28;33.10;;;16.70;;
8419;SDS011;4247;48.550;8.822;2022-12-10T07:38:55;29.07;;;14.23;;
8419;SDS011;4247;48.550;8.822;2022-12-10T07:41:22;29.57;;;15.30;;
8419;SDS011;4247;48.550;8.822;2022-12-10T07:43:50;25.00;;;14.63;;
8419;SDS011;4247;48.550;8.822;2022-12-10T07:46:20;29.63;;;14.33;;
8419;SDS011;4247;48.550;8.822;2022-12-10T07:48:49;26.37;;;13.17;;
8419;SDS011;4247;48.550;8.822;2022-12-10T07:51:16;25.77;;;14.63;;
8419;SDS011;4247;48.550;8.822;2022-12-10T07:53:45;26.73;;;14.63;;
8419;SDS011;4247;48.550;8.822;2022-12-10T07:56:13;28.27;;;15.27;;
8419;SDS011;4247;48.550;8.822;2022-12-10T07:58:40;24.90;;;13.63;;
8419;SDS011;4247;48.550;8.822;2022-12-10T08:01:08;28.13;;;16.10;;
8419;SDS011;4247;48.550;8.822;2022-12-10T08:03:39;27.37;;;15.10;;
8419;SDS011;4247;48.550;8.822;2022-12-10T08:06:07;29.43;;;15.63;;
8419;SDS011;4247;48.550;8.822;2022-12-10T08:08:35;28.10;;;14.70;;
8419;SDS011;4247;48.550;8.822;2022-12-10T08:11:03;31.57;;;15.13;;
8419;SDS011;4247;48.550;8.822;2022-12-10T08:13:31;29.50;;;14.67;;
8419;SDS011;4247;48.550;8.822;2022-12-10T08:16:00;33.07;;;17.87;;
8419;SDS011;4247;48.550;8.822;2022-12-10T08:18:28;22.77;;;12.17;;
8419;SDS011;4247;48.550;8.822;2022-12-10T08:20:56;27.17;;;15.33;;
8419;SDS011;4247;48.550;8.822;2022-12-10T08:23:23;27.87;;;15.73;;
8419;SDS011;4247;48.550;8.822;2022-12-10T08:25:50;29.00;;;15.10;;
8419;SDS011;4247;48.550;8.822;2022-12-10T08:28:17;27.97;;;15.13;;
8419;SDS011;4247;48.550;8.822;2022-12-10T08:30:45;26.43;;;15.63;;
8419;SDS011;4247;48.550;8.822;2022-12-10T08:33:12;28.30;;;14.53;;
8419;SDS011;4247;48.550;8.822;2022-12-10T08:35:39;25.40;;;14.73;;
8419;SDS011;4247;48.550;8.822;2022-12-10T08:38:07;27.03;;;15.47;;
8419;SDS011;4247;48.550;8.822;2022-12-10T08:40:37;23.53;;;14.00;;
8419;SDS011;4247;48.550;8.822;2022-12-10T08:43:05;24.57;;;13.97;;
8419;SDS011;4247;48.550;8.822;2022-12-10T08:45:32;27.03;;;15.20;;
8419;SDS011;4247;48.550;8.822;2022-12-10T08:47:59;24.57;;;14.97;;
8419;SDS011;4247;48.550;8.822;2022-12-10T08:50:26;26.47;;;14.70;;
8419;SDS011;4247;48.550;8.822;2022-12-10T08:52:54;33.67;;;15.37;;
8419;SDS011;4247;48.550;8.822;2022-12-10T08:55:22;27.33;;;15.00;;
8419;SDS011;4247;48.550;8.822;2022-12-10T08:57:49;26.07;;;13.83;;
8419;SDS011;4247;48.550;8.822;2022-12-10T09:00:15;29.37;;;15.40;;
8419;SDS011;4247;48.550;8.822;2022-12-10T09:02:43;33.23;;;15.40;;
8419;SDS011;4247;48.550;8.822;2022-12-10T09:05:10;28.07;;;16.43;;
8419;SDS011;4247;48.550;8.822;2022-12-10T09:07:37;33.93;;;14.97;;
8419;SDS011;4247;48.550;8.822;2022-12-10T09:10:04;33.47;;;16.40;;
8419;SDS011;4247;48.550;8.822;2022-12-10T09:12:33;26.07;;;13.97;;
8419;SDS011;4247;48.550;8.822;2022-12-10T09:15:00;28.10;;;15.10;;
8419;SDS011;4247;48.550;8.822;2022-12-10T09:17:27;29.63;;;14.50;;
8419;SDS011;4247;48.550;8.822;2022-12-10T09:19:54;26.20;;;14.73;;
8419;SDS011;4247;48.550;8.822;2022-12-10T09:22:20;28.27;;;14.07;;
8419;SDS011;4247;48.550;8.822;2022-12-10T09:24:47;24.03;;;12.93;;
8419;SDS011;4247;48.550;8.822;2022-12-10T09:27:14;24.37;;;13.33;;
8419;SDS011;4247;48.550;8.822;2022-12-10T09:29:42;25.30;;;15.73;;
8419;SDS011;4247;48.550;8.822;2022-12-10T09:32:09;23.23;;;13.97;;
8419;SDS011;4247;48.550;8.822;2022-12-10T09:34:35;24.53;;;13.73;;
8419;SDS011;4247;48.550;8.822;2022-12-10T09:37:02;22.70;;;12.53;;
8419;SDS011;4247;48.550;8.822;2022-12-10T09:39:29;22.83;;;12.80;;
8419;SDS011;4247;48.550;8.822;2022-12-10T09:41:59;22.97;;;14.30;;
8419;SDS011;4247;48.550;8.822;2022-12-10T09:44:46;22.90;;;12.73;;
8419;SDS011;4247;48.550;8.822;2022-12-10T09:47:19;22.57;;;14.10;;
8419;SDS011;4247;48.550;8.822;2022-12-10T09:49:57;23.43;;;13.67;;
8419;SDS011;4247;48.550;8.822;2022-12-10T09:52:34;26.77;;;14.17;;
8419;SDS011;4247;48.550;8.822;2022-12-10T09:55:08;23.10;;;14.33;;
8419;SDS011;4247;48.550;8.822;2022-12-10T09:57:39;27.03;;;15.33;;
8419;SDS011;4247;48.550;8.822;2022-12-10T10:00:17;22.60;;;13.63;;
8419;SDS011;4247;48.550;8.822;2022-12-10T10:02:47;28.37;;;14.37;;
8419;SDS011;4247;48.550;8.822;2022-12-10T10:05:19;18.03;;;11.90;;
8419;SDS011;4247;48.550;8.822;2022-12-10T10:07:49;25.70;;;13.63;;
8419;SDS011;4247;48.550;8.822;2022-12-10T10:10:21;23.53;;;13.17;;
8419;SDS011;4247;48.550;8.822;2022-12-10T10:12:51;23.87;;;12.57;;
8419;SDS011;4247;48.550;8.822;2022-12-10T10:15:22;21.27;;;13.30;;
8419;SDS011;4247;48.550;8.822;2022-12-10T10:17:54;26.67;;;14.33;;
8419;SDS011;4247;48.550;8.822;2022-12-10T10:20:24;23.67;;;14.10;;
8419;SDS011;4247;48.550;8.822;2022-12-10T10:22:51;25.03;;;13.30;;
8419;SDS011;4247;48.550;8.822;2022-12-10T10:25:19;20.80;;;12.97;;
8419;SDS011;4247;48.550;8.822;2022-12-10T10:27:46;25.30;;;14.07;;
8419;SDS011;4247;48.550;8.822;2022-12-10T10:30:14;20.03;;;12.50;;
8419;SDS011;4247;48.550;8.822;2022-12-10T10:32:48;26.07;;;14.33;;
8419;SDS011;4247;48.550;8.822;2022-12-10T10:35:23;24.67;;;12.97;;
8419;SDS011;4247;48.550;8.822;2022-12-10T10:37:52;26.03;;;14.17;;
8419;SDS011;4247;48.550;8.822;2022-12-10T10:40:25;23.23;;;12.90;;
8419;SDS011;4247;48.550;8.822;2022-12-10T10:42:54;22.63;;;12.50;;
8419;SDS011;4247;48.550;8.822;2022-12-10T10:48:11;21.73;;;12.00;;
8419;SDS011;4247;48.550;8.822;2022-12-10T10:50:40;18.60;;;11.40;;
8419;SDS011;4247;48.550;8.822;2022-12-10T10:56:07;20.50;;;11.97;;
8419;SDS011;4247;48.550;8.822;2022-12-10T10:58:36;21.33;;;13.07;;
8419;SDS011;4247;48.550;8.822;2022-12-10T11:01:14;20.27;;;12.20;;
8419;SDS011;4247;48.550;8.822;2022-12-10T11:03:46;23.50;;;11.83;;
8419;SDS011;4247;48.550;8.822;2022-12-10T11:06:15;22.10;;;12.63;;
8419;SDS011;4247;48.550;8.822;2022-12-10T11:08:43;20.27;;;10.83;;
8419;SDS011;4247;48.550;8.822;2022-12-10T11:11:16;26.43;;;11.03;;
8419;SDS011;4247;48.550;8.822;2022-12-10T11:13:45;18.90;;;12.07;;
8419;SDS011;4247;48.550;8.822;2022-12-10T11:16:16;17.00;;;11.23;;
8419;SDS011;4247;48.550;8.822;2022-12-10T11:18:54;17.47;;;10.27;;
8419;SDS011;4247;48.550;8.822;2022-12-10T11:21:26;18.47;;;11.40;;
8419;SDS011;4247;48.550;8.822;2022-12-10T11:23:53;20.47;;;12.40;;
8419;SDS011;4247;48.550;8.822;2022-12-10T11:26:24;20.57;;;12.30;;
8419;SDS011;4247;48.550;8.822;2022-12-10T11:29:09;21.13;;;11.53;;
8419;SDS011;4247;48.550;8.822;2022-12-10T11:31:55;18.27;;;11.57;;
8419;SDS011;4247;48.550;8.822;2022-12-10T11:34:35;20.03;;;11.97;;
8419;SDS011;4247;48.550;8.822;2022-12-10T11:37:13;20.17;;;11.57;;
8419;SDS011;4247;48.550;8.822;2022-12-10T11:39:51;19.20;;;11.83;;
8419;SDS011;4247;48.550;8.822;2022-12-10T11:42:29;22.17;;;11.73;;
8419;SDS011;4247;48.550;8.822;2022-12-10T11:45:07;18.40;;;10.93;;
8419;SDS011;4247;48.550;8.822;2022-12-10T11:47:46;21.57;;;11.10;;
8419;SDS011;4247;48.550;8.822;2022-12-10T11:50:32;19.83;;;11.73;;
8419;SDS011;4247;48.550;8.822;2022-12-10T11:53:15;17.73;;;11.17;;
8419;SDS011;4247;48.550;8.822;2022-12-10T11:55:54;17.93;;;11.93;;
8419;SDS011;4247;48.550;8.822;2022-12-10T11:58:33;20.07;;;11.00;;
8419;SDS011;4247;48.550;8.822;2022-12-10T12:01:24;17.40;;;11.40;;
8419;SDS011;4247;48.550;8.822;2022-12-10T12:04:06;20.13;;;11.73;;
8419;SDS011;4247;48.550;8.822;2022-12-10T12:06:51;23.63;;;12.67;;
8419;SDS011;4247;48.550;8.822;2022-12-10T12:09:38;19.00;;;11.70;;
8419;SDS011;4247;48.550;8.822;2022-12-10T12:12:19;16.57;;;10.27;;
8419;SDS011;4247;48.550;8.822;2022-12-10T12:14:53;19.60;;;10.40;;
8419;SDS011;4247;48.550;8.822;2022-12-10T12:17:23;15.37;;;10.10;;
8419;SDS011;4247;48.550;8.822;2022-12-10T12:19:56;15.93;;;10.40;;
8419;SDS011;4247;48.550;8.822;2022-12-10T12:22:28;16.83;;;11.37;;
8419;SDS011;4247;48.550;8.822;2022-12-10T12:24:59;16.13;;;9.97;;
8419;SDS011;4247;48.550;8.822;2022-12-10T12:27:32;16.53;;;10.03;;
8419;SDS011;4247;48.550;8.822;2022-12-10T12:30:05;16.20;;;9.83;;
8419;SDS011;4247;48.550;8.822;2022-12-10T12:32:42;22.63;;;10.13;;
8419;SDS011;4247;48.550;8.822;2022-12-10T12:35:16;17.23;;;9.97;;
8419;SDS011;4247;48.550;8.822;2022-12-10T12:37:49;20.87;;;10.43;;
8419;SDS011;4247;48.550;8.822;2022-12-10T12:40:23;18.27;;;9.67;;
8419;SDS011;4247;48.550;8.822;2022-12-10T12:42:55;17.83;;;9.93;;
8419;SDS011;4247;48.550;8.822;2022-12-10T12:45:29;15.97;;;9.37;;
8419;SDS011;4247;48.550;8.822;2022-12-10T12:48:01;15.83;;;8.70;;
8419;SDS011;4247;48.550;8.822;2022-12-10T12:50:41;15.70;;;9.37;;
8419;SDS011;4247;48.550;8.822;2022-12-10T12:53:13;17.73;;;9.67;;
8419;SDS011;4247;48.550;8.822;2022-12-10T12:55:44;14.83;;;9.13;;
8419;SDS011;4247;48.550;8.822;2022-12-10T12:58:22;12.47;;;7.87;;
8419;SDS011;4247;48.550;8.822;2022-12-10T13:00:55;12.37;;;7.90;;
8419;SDS011;4247;48.550;8.822;2022-12-10T13:03:29;16.17;;;8.87;;
8419;SDS011;4247;48.550;8.822;2022-12-10T13:06:17;14.13;;;9.00;;
8419;SDS011;4247;48.550;8.822;2022-12-10T13:08:49;16.43;;;8.87;;
8419;SDS011;4247;48.550;8.822;2022-12-10T13:11:30;12.93;;;7.90;;
8419;SDS011;4247;48.550;8.822;2022-12-10T13:17:00;12.07;;;7.57;;
8419;SDS011;4247;48.550;8.822;2022-12-10T13:19:42;11.40;;;6.93;;
8419;SDS011;4247;48.550;8.822;2022-12-10T13:22:10;12.70;;;7.70;;
8419;SDS011;4247;48.550;8.822;2022-12-10T13:24:47;9.50;;;7.30;;
8419;SDS011;4247;48.550;8.822;2022-12-10T13:27:31;12.47;;;7.97;;
8419;SDS011;4247;48.550;8.822;2022-12-10T13:30:00;14.20;;;7.73;;
8419;SDS011;4247;48.550;8.822;2022-12-10T13:35:23;14.97;;;8.57;;
8419;SDS011;4247;48.550;8.822;2022-12-10T13:37:54;11.47;;;7.97;;
8419;SDS011;4247;48.550;8.822;2022-12-10T13:40:26;9.33;;;7.20;;
8419;SDS011;4247;48.550;8.822;2022-12-10T13:43:24;14.53;;;8.30;;
8419;SDS011;4247;48.550;8.822;2022-12-10T13:48:57;13.60;;;7.97;;
8419;SDS011;4247;48.550;8.822;2022-12-10T13:51:26;14.93;;;7.83;;
8419;SDS011;4247;48.550;8.822;2022-12-10T13:57:24;14.23;;;9.07;;
8419;SDS011;4247;48.550;8.822;2022-12-10T14:00:09;15.43;;;9.10;;
8419;SDS011;4247;48.550;8.822;2022-12-10T14:02:57;15.13;;;8.33;;
8419;SDS011;4247;48.550;8.822;2022-12-10T14:05:55;14.77;;;8.83;;
8419;SDS011;4247;48.550;8.822;2022-12-10T14:08:37;17.73;;;9.23;;
8419;SDS011;4247;48.550;8.822;2022-12-10T14:11:06;16.27;;;8.87;;
8419;SDS011;4247;48.550;8.822;2022-12-10T14:13:42;15.20;;;8.10;;
8419;SDS011;4247;48.550;8.822;2022-12-10T14:16:14;10.23;;;7.07;;
8419;SDS011;4247;48.550;8.822;2022-12-10T14:18:45;15.50;;;8.53;;
8419;SDS011;4247;48.550;8.822;2022-12-10T14:21:18;17.07;;;9.30;;
8419;SDS011;4247;48.550;8.822;2022-12-10T14:23:45;16.03;;;8.83;;
8419;SDS011;4247;48.550;8.822;2022-12-10T14:26:14;15.50;;;8.80;;
8419;SDS011;4247;48.550;8.822;2022-12-10T14:28:44;15.10;;;9.17;;
8419;SDS011;4247;48.550;8.822;2022-12-10T14:31:14;16.17;;;9.73;;
8419;SDS011;4247;48.550;8.822;2022-12-10T14:33:44;18.03;;;11.00;;
8419;SDS011;4247;48.550;8.822;2022-12-10T14:36:26;16.50;;;9.73;;
8419;SDS011;4247;48.550;8.822;2022-12-10T14:38:54;13.20;;;8.47;;
8419;SDS011;4247;48.550;8.822;2022-12-10T14:41:23;14.43;;;7.67;;
8419;SDS011;4247;48.550;8.822;2022-12-10T14:43:52;21.07;;;10.10;;
8419;SDS011;4247;48.550;8.822;2022-12-10T14:46:19;17.33;;;10.43;;
8419;SDS011;4247;48.550;8.822;2022-12-10T14:48:49;17.43;;;10.37;;
8419;SDS011;4247;48.550;8.822;2022-12-10T14:51:18;22.10;;;11.20;;
8419;SDS011;4247;48.550;8.822;2022-12-10T14:53:46;15.40;;;9.97;;
8419;SDS011;4247;48.550;8.822;2022-12-10T14:56:15;20.70;;;11.13;;
8419;SDS011;4247;48.550;8.822;2022-12-10T14:58:47;16.90;;;9.30;;
8419;SDS011;4247;48.550;8.822;2022-12-10T15:01:22;16.40;;;8.60;;
8419;SDS011;4247;48.550;8.822;2022-12-10T15:03:52;15.97;;;9.13;;
8419;SDS011;4247;48.550;8.822;2022-12-10T15:06:20;16.23;;;9.83;;
8419;SDS011;4247;48.550;8.822;2022-12-10T15:08:48;17.50;;;9.60;;
8419;SDS011;4247;48.550;8.822;2022-12-10T15:11:19;17.07;;;9.43;;
8419;SDS011;4247;48.550;8.822;2022-12-10T15:13:47;15.30;;;9.50;;
8419;SDS011;4247;48.550;8.822;2022-12-10T15:16:18;15.37;;;8.37;;
8419;SDS011;4247;48.550;8.822;2022-12-10T15:18:53;14.40;;;8.57;;
8419;SDS011;4247;48.550;8.822;2022-12-10T15:21:22;15.30;;;8.83;;
8419;SDS011;4247;48.550;8.822;2022-12-10T15:23:50;17.13;;;9.90;;
8419;SDS011;4247;48.550;8.822;2022-12-10T15:26:35;16.40;;;8.90;;
8419;SDS011;4247;48.550;8.822;2022-12-10T15:29:15;17.57;;;9.03;;